Time;durP1;ratioP1;P1;durP2;ratioP2;P2;SDS_P1;SDS_P2;PMS_P1;PMS_P2;Temp;Humidity;BMP_temperature;BMP_pressure;BME280_temperature;BME280_humidity;BME280_pressure;Samples;Min_cycle;Max_cycle;Signal;HPM_P1;HPM_P2
2023/06/13 00:00:51;;;;;;;5.18;3.38;;;;;;;;;;4911126;28;20161;-74
2023/06/13 00:03:19;;;;;;;5.03;3.00;;;;;;;;;;4915458;28;20141;-75
2023/06/13 00:05:46;;;;;;;12.50;3.65;;;;;;;;;;4931012;28;20129;-74
2023/06/13 00:08:18;;;;;;;8.73;3.75;;;;;;;;;;4931696;28;20499;-74
2023/06/13 00:10:46;;;;;;;9.05;4.10;;;;;;;;;;4913427;28;20055;-74
2023/06/13 00:13:13;;;;;;;7.18;3.60;;;;;;;;;;4929913;28;20065;-75
2023/06/13 00:15:39;;;;;;;9.85;3.97;;;;;;;;;;4930221;28;20047;-74
2023/06/13 00:18:05;;;;;;;13.68;4.10;;;;;;;;;;4917162;28;20048;-74
2023/06/13 00:20:33;;;;;;;13.02;3.65;;;;;;;;;;4929636;28;20185;-74
2023/06/13 00:22:59;;;;;;;4.95;3.50;;;;;;;;;;4909892;28;20193;-75
2023/06/13 00:25:25;;;;;;;8.25;4.10;;;;;;;;;;4926391;28;20051;-74
2023/06/13 00:27:51;;;;;;;16.40;4.35;;;;;;;;;;4928085;28;20162;-74
2023/06/13 00:30:17;;;;;;;7.18;3.72;;;;;;;;;;4926391;28;20044;-74
2023/06/13 00:32:44;;;;;;;7.28;3.90;;;;;;;;;;4927983;28;20047;-74
2023/06/13 00:35:10;;;;;;;5.80;3.55;;;;;;;;;;4927032;28;20079;-74
2023/06/13 00:37:38;;;;;;;8.30;3.58;;;;;;;;;;4912181;28;20070;-75
2023/06/13 00:40:05;;;;;;;9.73;3.75;;;;;;;;;;4913149;28;20051;-74
2023/06/13 00:42:31;;;;;;;7.07;3.38;;;;;;;;;;4911438;28;20047;-74
2023/06/13 00:45:17;;;;;;;5.88;3.60;;;;;;;;;;4929387;28;20281;-74
2023/06/13 00:47:45;;;;;;;10.55;4.05;;;;;;;;;;4931208;28;20412;-74
2023/06/13 00:50:12;;;;;;;5.18;3.47;;;;;;;;;;4928614;28;20063;-74
2023/06/13 00:52:39;;;;;;;7.47;3.58;;;;;;;;;;4929285;28;20051;-74
2023/06/13 00:55:06;;;;;;;5.88;3.40;;;;;;;;;;4929917;28;20048;-74
2023/06/13 00:57:33;;;;;;;6.40;3.65;;;;;;;;;;4914161;28;20102;-74
2023/06/13 01:00:01;;;;;;;5.82;3.50;;;;;;;;;;4912435;28;20483;-74
2023/06/13 01:02:27;;;;;;;7.55;3.42;;;;;;;;;;4930058;28;20165;-74
2023/06/13 01:04:54;;;;;;;8.77;3.97;;;;;;;;;;4929001;28;20047;-74
2023/06/13 01:07:20;;;;;;;7.80;3.70;;;;;;;;;;4909813;28;20101;-75
2023/06/13 01:09:47;;;;;;;5.82;3.83;;;;;;;;;;4915432;28;20373;-74
2023/06/13 01:12:36;;;;;;;6.65;4.20;;;;;;;;;;4913712;28;20468;-74
2023/06/13 01:15:02;;;;;;;6.75;4.20;;;;;;;;;;4894283;28;20109;-74
2023/06/13 01:17:33;;;;;;;8.60;3.97;;;;;;;;;;4928395;28;20051;-74
2023/06/13 01:20:00;;;;;;;8.40;4.03;;;;;;;;;;4931467;28;20050;-74
2023/06/13 01:22:37;;;;;;;8.90;4.07;;;;;;;;;;4914814;28;20276;-74
2023/06/13 01:25:12;;;;;;;6.38;3.85;;;;;;;;;;4912194;28;20052;-74
2023/06/13 01:27:39;;;;;;;8.38;4.10;;;;;;;;;;4929888;28;21662;-74
2023/06/13 01:30:06;;;;;;;7.30;3.80;;;;;;;;;;4913961;28;20587;-75
2023/06/13 01:32:33;;;;;;;8.25;3.83;;;;;;;;;;4914396;28;20046;-75
2023/06/13 01:35:00;;;;;;;8.77;4.32;;;;;;;;;;4931099;28;20086;-74
2023/06/13 01:37:27;;;;;;;9.75;3.80;;;;;;;;;;4930656;28;20053;-74
2023/06/13 01:39:53;;;;;;;4.50;3.60;;;;;;;;;;4920083;28;20086;-74
2023/06/13 01:42:19;;;;;;;6.30;3.70;;;;;;;;;;4914803;28;20044;-74
2023/06/13 01:44:45;;;;;;;7.78;3.83;;;;;;;;;;4932141;28;20039;-74
2023/06/13 01:47:29;;;;;;;6.07;3.97;;;;;;;;;;4909899;28;20051;-75
2023/06/13 01:49:58;;;;;;;8.80;4.00;;;;;;;;;;4915821;28;20110;-75
2023/06/13 01:52:33;;;;;;;11.13;3.88;;;;;;;;;;4910352;28;20137;-74
2023/06/13 01:55:04;;;;;;;6.57;3.95;;;;;;;;;;4915120;28;20048;-74
2023/06/13 01:57:33;;;;;;;6.78;3.65;;;;;;;;;;4916605;28;20047;-75
2023/06/13 02:00:00;;;;;;;7.10;3.67;;;;;;;;;;4913212;28;20130;-75
2023/06/13 02:02:27;;;;;;;4.90;3.72;;;;;;;;;;4928400;28;20047;-74
2023/06/13 02:04:55;;;;;;;5.82;3.63;;;;;;;;;;4929505;28;20396;-74
2023/06/13 02:07:22;;;;;;;5.50;3.70;;;;;;;;;;4914737;28;20057;-74
2023/06/13 02:09:48;;;;;;;6.70;3.22;;;;;;;;;;4929855;28;20046;-74
2023/06/13 02:12:14;;;;;;;9.93;3.60;;;;;;;;;;4927583;28;21132;-74
2023/06/13 02:14:42;;;;;;;10.52;3.60;;;;;;;;;;4913358;28;20051;-74
2023/06/13 02:17:08;;;;;;;8.70;3.70;;;;;;;;;;4926231;28;20089;-74
2023/06/13 02:19:35;;;;;;;4.40;3.80;;;;;;;;;;4928286;28;20086;-74
2023/06/13 02:22:01;;;;;;;7.38;3.90;;;;;;;;;;4931264;28;20463;-74
2023/06/13 02:24:27;;;;;;;4.90;3.72;;;;;;;;;;4917784;28;20101;-74
2023/06/13 02:26:53;;;;;;;8.00;4.43;;;;;;;;;;4916813;28;20047;-74
2023/06/13 02:29:20;;;;;;;5.55;3.85;;;;;;;;;;4916584;28;20055;-74
2023/06/13 02:31:46;;;;;;;8.02;3.88;;;;;;;;;;4918253;28;20135;-74
2023/06/13 02:34:12;;;;;;;10.32;4.15;;;;;;;;;;4911954;28;20047;-73
2023/06/13 02:36:38;;;;;;;8.20;4.00;;;;;;;;;;4914838;28;20624;-74
2023/06/13 02:39:04;;;;;;;3.85;3.45;;;;;;;;;;4916493;28;20081;-74
2023/06/13 02:41:31;;;;;;;5.25;3.88;;;;;;;;;;4918553;28;20134;-75
2023/06/13 02:43:57;;;;;;;8.07;3.42;;;;;;;;;;4915525;28;20162;-74
2023/06/13 02:46:23;;;;;;;5.85;3.38;;;;;;;;;;4917994;28;20516;-74
2023/06/13 02:48:49;;;;;;;11.40;3.80;;;;;;;;;;4933337;28;20170;-74
2023/06/13 02:51:15;;;;;;;8.30;3.25;;;;;;;;;;4931959;28;20125;-74
2023/06/13 02:53:41;;;;;;;3.67;3.33;;;;;;;;;;4918356;28;20056;-74
2023/06/13 02:56:07;;;;;;;6.63;3.63;;;;;;;;;;4917501;28;20048;-74
2023/06/13 02:58:33;;;;;;;7.45;3.38;;;;;;;;;;4930365;28;20596;-74
2023/06/13 03:00:59;;;;;;;5.80;3.67;;;;;;;;;;4930483;28;20805;-74
2023/06/13 03:03:25;;;;;;;5.10;3.33;;;;;;;;;;4929746;28;20040;-74
2023/06/13 03:05:56;;;;;;;7.03;3.67;;;;;;;;;;4914853;28;20056;-74
2023/06/13 03:08:26;;;;;;;4.57;3.13;;;;;;;;;;4929276;28;20512;-74
2023/06/13 03:10:52;;;;;;;3.88;2.97;;;;;;;;;;4929044;28;20499;-74
2023/06/13 03:13:18;;;;;;;5.55;3.15;;;;;;;;;;4929099;28;20043;-74
2023/06/13 03:15:48;;;;;;;4.55;3.03;;;;;;;;;;4910035;28;20047;-74
2023/06/13 03:18:14;;;;;;;3.38;2.92;;;;;;;;;;4929394;28;20046;-74
2023/06/13 03:20:45;;;;;;;5.35;3.33;;;;;;;;;;4912277;28;20044;-74
2023/06/13 03:23:12;;;;;;;6.90;3.15;;;;;;;;;;4929874;28;21650;-74
2023/06/13 03:25:40;;;;;;;4.75;3.33;;;;;;;;;;4914040;28;20562;-74
2023/06/13 03:28:06;;;;;;;6.90;2.97;;;;;;;;;;4928717;28;20165;-74
2023/06/13 03:30:32;;;;;;;5.00;3.35;;;;;;;;;;4914819;28;20178;-74
2023/06/13 03:32:58;;;;;;;3.88;2.65;;;;;;;;;;4929271;28;20466;-74
2023/06/13 03:35:25;;;;;;;7.25;3.25;;;;;;;;;;4928994;28;20721;-74
2023/06/13 03:37:51;;;;;;;3.60;2.70;;;;;;;;;;4909919;28;20054;-74
2023/06/13 03:40:17;;;;;;;4.25;3.20;;;;;;;;;;4929570;28;20039;-74
2023/06/13 03:42:43;;;;;;;6.68;3.10;;;;;;;;;;4931345;28;20043;-74
2023/06/13 03:45:10;;;;;;;3.80;3.13;;;;;;;;;;4929808;28;20305;-74
2023/06/13 03:47:36;;;;;;;8.45;3.63;;;;;;;;;;4930216;28;20044;-74
2023/06/13 03:50:02;;;;;;;3.10;2.80;;;;;;;;;;4928160;28;20545;-74
2023/06/13 03:52:28;;;;;;;5.03;3.10;;;;;;;;;;4929220;28;20055;-74
2023/06/13 03:54:54;;;;;;;5.95;3.38;;;;;;;;;;4928944;28;20058;-74
2023/06/13 03:57:21;;;;;;;5.10;3.53;;;;;;;;;;4929913;28;20436;-75
2023/06/13 03:59:47;;;;;;;6.40;3.20;;;;;;;;;;4914262;28;20138;-74
2023/06/13 04:02:13;;;;;;;4.03;2.85;;;;;;;;;;4926402;28;20063;-74
2023/06/13 04:04:46;;;;;;;6.30;3.42;;;;;;;;;;4914059;28;20039;-74
2023/06/13 04:07:12;;;;;;;4.22;3.00;;;;;;;;;;4925842;28;20591;-74
2023/06/13 04:09:38;;;;;;;5.35;3.20;;;;;;;;;;4927444;28;20046;-74
2023/06/13 04:12:05;;;;;;;4.97;3.17;;;;;;;;;;4924352;28;20039;-74
2023/06/13 04:14:32;;;;;;;4.55;3.22;;;;;;;;;;4913583;28;20050;-74
2023/06/13 04:16:59;;;;;;;7.00;3.25;;;;;;;;;;4922700;28;20077;-74
2023/06/13 04:19:25;;;;;;;5.07;3.30;;;;;;;;;;4926758;28;20101;-74
2023/06/13 04:21:52;;;;;;;9.85;3.10;;;;;;;;;;4912206;28;20747;-74
2023/06/13 04:24:18;;;;;;;6.22;2.97;;;;;;;;;;4913442;28;20371;-74
2023/06/13 04:26:48;;;;;;;11.25;3.20;;;;;;;;;;4907673;28;20093;-74
2023/06/13 04:29:15;;;;;;;5.88;3.08;;;;;;;;;;4926838;28;20309;-74
2023/06/13 04:31:42;;;;;;;6.32;3.25;;;;;;;;;;4909190;28;20920;-74
2023/06/13 04:34:10;;;;;;;5.47;3.13;;;;;;;;;;4926378;28;20054;-74
2023/06/13 04:36:38;;;;;;;5.78;3.40;;;;;;;;;;4927491;28;20216;-74
2023/06/13 04:39:06;;;;;;;4.80;3.30;;;;;;;;;;4928087;28;20110;-75
2023/06/13 04:41:38;;;;;;;8.27;3.35;;;;;;;;;;4926390;28;20118;-74
2023/06/13 04:44:05;;;;;;;4.90;3.20;;;;;;;;;;4897503;28;20043;-74
2023/06/13 04:46:35;;;;;;;5.28;3.13;;;;;;;;;;4913621;28;20391;-75
2023/06/13 04:49:01;;;;;;;10.23;3.25;;;;;;;;;;4914076;28;20198;-74
2023/06/13 04:51:27;;;;;;;5.53;2.88;;;;;;;;;;4912166;28;20063;-75
2023/06/13 04:53:57;;;;;;;4.78;3.08;;;;;;;;;;4927087;28;20067;-75
2023/06/13 04:56:24;;;;;;;5.25;3.33;;;;;;;;;;4928380;28;20043;-74
2023/06/13 04:58:52;;;;;;;8.20;3.17;;;;;;;;;;4928541;28;20131;-74
2023/06/13 05:01:19;;;;;;;11.02;3.00;;;;;;;;;;4927887;28;20048;-74
2023/06/13 05:03:46;;;;;;;5.80;2.95;;;;;;;;;;4929651;28;21186;-74
2023/06/13 05:06:12;;;;;;;8.55;3.00;;;;;;;;;;4912588;28;20054;-75
2023/06/13 05:08:39;;;;;;;9.88;3.33;;;;;;;;;;4928433;28;20184;-74
2023/06/13 05:11:05;;;;;;;3.42;3.05;;;;;;;;;;4928355;28;21703;-74
2023/06/13 05:13:31;;;;;;;5.68;2.70;;;;;;;;;;4913366;28;20404;-75
2023/06/13 05:15:57;;;;;;;5.55;3.17;;;;;;;;;;4929949;28;20101;-74
2023/06/13 05:18:29;;;;;;;11.52;3.17;;;;;;;;;;4925714;28;20047;-74
2023/06/13 05:20:56;;;;;;;6.35;2.88;;;;;;;;;;4914491;28;21427;-76
2023/06/13 05:23:22;;;;;;;5.85;3.05;;;;;;;;;;4914712;28;20043;-74
2023/06/13 05:25:48;;;;;;;5.57;3.45;;;;;;;;;;4928320;28;20086;-74
2023/06/13 05:28:16;;;;;;;4.68;3.30;;;;;;;;;;4928872;28;20048;-74
2023/06/13 05:30:42;;;;;;;4.75;2.92;;;;;;;;;;4927903;28;20050;-75
2023/06/13 05:33:09;;;;;;;4.72;2.70;;;;;;;;;;4931244;28;20055;-74
2023/06/13 05:35:35;;;;;;;7.15;3.13;;;;;;;;;;4928272;28;20043;-75
2023/06/13 05:38:01;;;;;;;8.60;2.95;;;;;;;;;;4929693;28;20039;-75
2023/06/13 05:40:27;;;;;;;6.03;3.10;;;;;;;;;;4927343;28;20047;-74
2023/06/13 05:42:53;;;;;;;4.60;3.03;;;;;;;;;;4926968;28;20040;-74
2023/06/13 05:45:20;;;;;;;3.15;2.80;;;;;;;;;;4930288;28;20121;-70
2023/06/13 05:47:46;;;;;;;4.50;3.20;;;;;;;;;;4928369;28;20185;-70
2023/06/13 05:50:12;;;;;;;7.82;3.10;;;;;;;;;;4925961;28;20059;-75
2023/06/13 05:52:39;;;;;;;5.25;2.70;;;;;;;;;;4928762;28;20050;-75
2023/06/13 05:55:05;;;;;;;8.48;2.95;;;;;;;;;;4929167;28;20079;-75
2023/06/13 05:57:41;;;;;;;7.05;3.10;;;;;;;;;;4916230;28;20393;-75
2023/06/13 06:00:09;;;;;;;5.47;2.92;;;;;;;;;;4932453;28;21348;-75
2023/06/13 06:02:35;;;;;;;3.95;2.60;;;;;;;;;;4930985;28;20067;-74
2023/06/13 06:05:02;;;;;;;6.80;3.10;;;;;;;;;;4913148;28;20090;-76
2023/06/13 06:07:28;;;;;;;4.88;2.97;;;;;;;;;;4921367;28;20600;-76
2023/06/13 06:09:54;;;;;;;6.35;2.85;;;;;;;;;;4933127;28;20032;-75
2023/06/13 06:12:20;;;;;;;4.30;3.17;;;;;;;;;;4932070;28;20035;-76
2023/06/13 06:14:46;;;;;;;3.90;2.40;;;;;;;;;;4930749;28;20070;-76
2023/06/13 06:17:12;;;;;;;7.38;2.67;;;;;;;;;;4918744;28;20074;-75
2023/06/13 06:19:38;;;;;;;5.60;2.75;;;;;;;;;;4921761;28;20043;-75
2023/06/13 06:22:04;;;;;;;7.72;3.13;;;;;;;;;;4936377;28;20039;-75
2023/06/13 06:24:30;;;;;;;5.22;2.80;;;;;;;;;;4929429;28;20518;-76
2023/06/13 06:26:57;;;;;;;4.63;2.80;;;;;;;;;;4935707;28;20054;-76
2023/06/13 06:29:23;;;;;;;6.57;2.75;;;;;;;;;;4918834;28;20093;-75
2023/06/13 06:31:49;;;;;;;5.55;2.70;;;;;;;;;;4920269;28;20043;-75
2023/06/13 06:34:15;;;;;;;4.35;2.72;;;;;;;;;;4934374;28;20484;-75
2023/06/13 06:36:41;;;;;;;7.72;3.00;;;;;;;;;;4916644;28;20070;-75
2023/06/13 06:39:07;;;;;;;5.80;2.92;;;;;;;;;;4935050;28;20047;-75
2023/06/13 06:41:33;;;;;;;3.78;2.50;;;;;;;;;;4934181;28;20039;-76
2023/06/13 06:43:59;;;;;;;3.38;2.50;;;;;;;;;;4919133;28;20158;-76
2023/06/13 06:46:25;;;;;;;3.10;2.35;;;;;;;;;;4918881;28;20129;-76
2023/06/13 06:48:51;;;;;;;4.30;2.70;;;;;;;;;;4933856;28;20067;-75
2023/06/13 06:51:17;;;;;;;3.78;2.38;;;;;;;;;;4934935;28;20495;-75
2023/06/13 06:53:44;;;;;;;11.07;2.50;;;;;;;;;;4934281;28;20044;-76
2023/06/13 06:56:10;;;;;;;4.13;2.50;;;;;;;;;;4913800;28;20085;-76
2023/06/13 06:58:36;;;;;;;3.70;2.38;;;;;;;;;;4914259;28;20042;-76
2023/06/13 07:01:02;;;;;;;6.50;2.53;;;;;;;;;;4919418;28;20699;-76
2023/06/13 07:03:28;;;;;;;6.70;2.47;;;;;;;;;;4912984;28;20044;-76
2023/06/13 07:05:55;;;;;;;9.40;2.95;;;;;;;;;;4935261;28;20043;-76
2023/06/13 07:08:21;;;;;;;6.25;2.80;;;;;;;;;;4918406;28;21971;-76
2023/06/13 07:10:47;;;;;;;6.20;2.78;;;;;;;;;;4936524;28;20054;-76
2023/06/13 07:13:13;;;;;;;6.45;2.55;;;;;;;;;;4933696;28;20475;-76
2023/06/13 07:15:39;;;;;;;5.45;3.05;;;;;;;;;;4915119;28;20520;-76
2023/06/13 07:18:06;;;;;;;4.78;2.40;;;;;;;;;;4930539;28;20035;-75
2023/06/13 07:20:32;;;;;;;4.50;2.55;;;;;;;;;;4919823;28;20050;-76
2023/06/13 07:22:58;;;;;;;2.97;2.30;;;;;;;;;;4918925;28;20055;-76
2023/06/13 07:25:24;;;;;;;3.05;2.50;;;;;;;;;;4920481;28;20122;-76
2023/06/13 07:27:51;;;;;;;4.30;2.85;;;;;;;;;;4934310;28;20384;-75
2023/06/13 07:30:17;;;;;;;3.28;2.30;;;;;;;;;;4919071;28;20448;-74
2023/06/13 07:32:43;;;;;;;3.65;2.72;;;;;;;;;;4935349;28;20043;-76
2023/06/13 07:35:09;;;;;;;7.05;2.80;;;;;;;;;;4934368;28;20527;-75
2023/06/13 07:37:36;;;;;;;5.05;2.47;;;;;;;;;;4935659;28;20035;-76
2023/06/13 07:40:05;;;;;;;3.72;2.90;;;;;;;;;;4935019;28;20063;-76
2023/06/13 07:42:31;;;;;;;7.03;2.78;;;;;;;;;;4934133;28;20369;-76
2023/06/13 07:44:57;;;;;;;3.35;2.53;;;;;;;;;;4932316;28;20043;-75
2023/06/13 07:47:23;;;;;;;13.32;2.65;;;;;;;;;;4919202;28;20062;-78
2023/06/13 07:49:49;;;;;;;8.48;2.78;;;;;;;;;;4932859;28;20564;-76
2023/06/13 07:52:15;;;;;;;4.72;3.05;;;;;;;;;;4934688;28;20055;-76
2023/06/13 07:54:41;;;;;;;3.00;2.17;;;;;;;;;;4918423;28;20503;-76
2023/06/13 07:57:08;;;;;;;5.38;2.55;;;;;;;;;;4934138;28;20079;-75
2023/06/13 07:59:34;;;;;;;6.93;2.42;;;;;;;;;;4918662;28;20732;-76
2023/06/13 08:02:00;;;;;;;4.13;2.45;;;;;;;;;;4933565;28;20139;-76
2023/06/13 08:04:26;;;;;;;5.75;2.90;;;;;;;;;;4918804;28;20397;-76
2023/06/13 08:06:52;;;;;;;7.75;2.88;;;;;;;;;;4914136;28;20043;-76
2023/06/13 08:09:18;;;;;;;6.43;2.83;;;;;;;;;;4914570;28;20047;-75
2023/06/13 08:11:44;;;;;;;6.30;2.53;;;;;;;;;;4899791;28;20076;-75
2023/06/13 08:14:14;;;;;;;3.80;2.65;;;;;;;;;;4914556;28;20126;-75
2023/06/13 08:16:40;;;;;;;3.75;2.47;;;;;;;;;;4931409;28;20110;-75
2023/06/13 08:19:06;;;;;;;7.45;2.83;;;;;;;;;;4931433;28;20054;-75
2023/06/13 08:21:32;;;;;;;4.45;2.15;;;;;;;;;;4933225;28;20518;-75
2023/06/13 08:24:01;;;;;;;6.35;2.47;;;;;;;;;;4932369;28;20043;-78
2023/06/13 08:26:32;;;;;;;5.80;2.47;;;;;;;;;;4931448;28;20055;-77
2023/06/13 08:28:59;;;;;;;5.60;2.70;;;;;;;;;;4932437;28;20047;-76
2023/06/13 08:31:25;;;;;;;7.20;2.25;;;;;;;;;;4934037;28;20169;-75
2023/06/13 08:33:51;;;;;;;9.23;2.95;;;;;;;;;;4912598;28;20050;-75
2023/06/13 08:36:17;;;;;;;6.68;2.58;;;;;;;;;;4933521;28;20047;-76
2023/06/13 08:38:43;;;;;;;6.40;2.75;;;;;;;;;;4913637;28;20535;-76
2023/06/13 08:41:11;;;;;;;5.30;2.40;;;;;;;;;;4932848;28;20054;-75
2023/06/13 08:43:38;;;;;;;8.73;2.40;;;;;;;;;;4930605;28;20122;-76
2023/06/13 08:46:04;;;;;;;7.65;2.38;;;;;;;;;;4917444;28;21679;-76
2023/06/13 08:48:32;;;;;;;5.72;2.88;;;;;;;;;;4912010;28;20594;-76
2023/06/13 08:51:03;;;;;;;5.93;2.45;;;;;;;;;;4918381;28;20071;-76
2023/06/13 08:53:31;;;;;;;7.80;2.83;;;;;;;;;;4931838;28;20546;-76
2023/06/13 08:55:59;;;;;;;5.85;2.63;;;;;;;;;;4917921;28;20062;-76
2023/06/13 08:58:27;;;;;;;8.15;2.50;;;;;;;;;;4929536;28;20050;-76
2023/06/13 09:00:53;;;;;;;4.00;2.45;;;;;;;;;;4930663;28;20472;-75
2023/06/13 09:03:20;;;;;;;2.85;2.45;;;;;;;;;;4931733;28;20043;-76
2023/06/13 09:05:47;;;;;;;6.38;2.50;;;;;;;;;;4929919;28;20046;-76
2023/06/13 09:08:14;;;;;;;6.15;2.40;;;;;;;;;;4931321;28;20118;-76
2023/06/13 09:10:41;;;;;;;5.10;2.28;;;;;;;;;;4918147;28;20493;-75
2023/06/13 09:13:08;;;;;;;6.38;3.03;;;;;;;;;;4911421;28;20039;-75
2023/06/13 09:15:35;;;;;;;7.65;2.45;;;;;;;;;;4929515;28;20086;-75
2023/06/13 09:18:01;;;;;;;6.93;3.20;;;;;;;;;;4917191;28;20488;-76
2023/06/13 09:20:30;;;;;;;9.43;3.05;;;;;;;;;;4930633;28;20051;-75
2023/06/13 09:22:57;;;;;;;8.77;2.55;;;;;;;;;;4916491;28;20051;-76
2023/06/13 09:25:23;;;;;;;30.88;3.00;;;;;;;;;;4895803;28;20047;-76
2023/06/13 09:27:49;;;;;;;8.68;2.95;;;;;;;;;;4916290;28;20530;-76
2023/06/13 09:30:15;;;;;;;3.47;2.50;;;;;;;;;;4911940;28;20050;-76
2023/06/13 09:32:53;;;;;;;7.40;2.25;;;;;;;;;;4929295;28;21353;-76
2023/06/13 09:35:19;;;;;;;8.43;2.42;;;;;;;;;;4930383;28;20142;-76
2023/06/13 09:37:46;;;;;;;5.35;2.50;;;;;;;;;;4932580;28;20039;-76
2023/06/13 09:40:13;;;;;;;5.93;2.33;;;;;;;;;;4915781;28;20043;-76
2023/06/13 09:42:42;;;;;;;5.45;2.30;;;;;;;;;;4916225;28;20654;-76
2023/06/13 09:45:08;;;;;;;7.97;2.67;;;;;;;;;;4915265;28;20047;-75
2023/06/13 09:47:35;;;;;;;12.93;2.50;;;;;;;;;;4912753;28;20085;-75
2023/06/13 09:50:01;;;;;;;10.30;2.50;;;;;;;;;;4932600;28;20065;-75
2023/06/13 09:52:30;;;;;;;4.53;2.45;;;;;;;;;;4916314;28;20062;-75
2023/06/13 09:54:56;;;;;;;5.70;2.20;;;;;;;;;;4930094;28;20048;-75
2023/06/13 09:57:23;;;;;;;4.68;2.15;;;;;;;;;;4931882;28;20055;-75
2023/06/13 09:59:50;;;;;;;5.28;2.22;;;;;;;;;;4933090;28;20051;-75
2023/06/13 10:02:17;;;;;;;6.10;2.47;;;;;;;;;;4916816;28;20051;-75
2023/06/13 10:04:43;;;;;;;5.82;2.20;;;;;;;;;;4911000;28;20381;-75
2023/06/13 10:07:12;;;;;;;5.63;2.47;;;;;;;;;;4930417;28;20049;-75
2023/06/13 10:09:39;;;;;;;6.00;2.70;;;;;;;;;;4916182;28;20079;-75
2023/06/13 10:12:10;;;;;;;7.63;2.30;;;;;;;;;;4930065;28;20047;-75
2023/06/13 10:14:37;;;;;;;5.05;2.13;;;;;;;;;;4930765;28;20043;-75
2023/06/13 10:17:04;;;;;;;3.63;2.75;;;;;;;;;;4931370;28;20047;-75
2023/06/13 10:19:30;;;;;;;4.05;2.50;;;;;;;;;;4930634;28;20094;-75
2023/06/13 10:21:57;;;;;;;5.25;2.15;;;;;;;;;;4915127;28;20146;-75
2023/06/13 10:24:23;;;;;;;5.15;2.30;;;;;;;;;;4931641;28;20065;-75
2023/06/13 10:26:52;;;;;;;7.82;2.00;;;;;;;;;;4930013;28;20047;-74
2023/06/13 10:29:35;;;;;;;3.20;2.05;;;;;;;;;;4914896;28;20180;-75
2023/06/13 10:32:16;;;;;;;6.85;2.42;;;;;;;;;;4914616;28;20048;-77
2023/06/13 10:34:42;;;;;;;2.53;1.65;;;;;;;;;;4930436;28;20058;-75
2023/06/13 10:37:09;;;;;;;3.35;2.28;;;;;;;;;;4915728;28;20043;-75
2023/06/13 10:39:47;;;;;;;5.00;2.53;;;;;;;;;;4930854;28;20043;-74
2023/06/13 10:42:14;;;;;;;4.88;2.13;;;;;;;;;;4931168;28;20078;-75
2023/06/13 10:44:48;;;;;;;4.53;2.08;;;;;;;;;;4914062;28;20146;-75
2023/06/13 10:47:21;;;;;;;3.83;2.00;;;;;;;;;;4919157;28;20047;-75
2023/06/13 10:49:51;;;;;;;9.98;2.03;;;;;;;;;;4933599;28;20129;-75
2023/06/13 10:52:21;;;;;;;5.90;2.33;;;;;;;;;;4933626;28;20791;-75
2023/06/13 10:54:55;;;;;;;4.53;2.28;;;;;;;;;;4918564;29;20070;-75
2023/06/13 10:57:21;;;;;;;5.93;2.90;;;;;;;;;;4919793;28;20063;-74
2023/06/13 10:59:49;;;;;;;4.63;1.92;;;;;;;;;;4934506;28;20047;-75
2023/06/13 11:02:16;;;;;;;3.60;2.20;;;;;;;;;;4920235;28;20093;-75
2023/06/13 11:04:52;;;;;;;5.82;1.80;;;;;;;;;;4934535;28;20077;-75
2023/06/13 11:07:21;;;;;;;6.85;2.08;;;;;;;;;;4933102;28;20066;-75
2023/06/13 11:10:06;;;;;;;5.38;2.03;;;;;;;;;;4918703;28;20059;-76
2023/06/13 11:12:32;;;;;;;5.88;2.05;;;;;;;;;;4918947;28;20463;-75
2023/06/13 11:14:59;;;;;;;3.70;2.08;;;;;;;;;;4904775;28;20134;-75
2023/06/13 11:17:26;;;;;;;2.75;1.98;;;;;;;;;;4914066;28;20146;-76
2023/06/13 11:19:53;;;;;;;8.90;2.00;;;;;;;;;;4917627;28;20051;-75
2023/06/13 11:22:21;;;;;;;4.13;1.85;;;;;;;;;;4918988;28;20514;-76
2023/06/13 11:24:48;;;;;;;3.65;1.80;;;;;;;;;;4918657;28;20051;-76
2023/06/13 11:27:16;;;;;;;3.83;2.00;;;;;;;;;;4933302;28;20039;-76
2023/06/13 11:29:46;;;;;;;4.57;2.15;;;;;;;;;;4917851;28;20090;-76
2023/06/13 11:32:13;;;;;;;4.47;2.08;;;;;;;;;;4933438;28;20062;-76
2023/06/13 11:34:42;;;;;;;5.63;1.92;;;;;;;;;;4920592;28;20217;-76
2023/06/13 11:37:13;;;;;;;5.72;1.90;;;;;;;;;;4918747;28;20142;-76
2023/06/13 11:39:41;;;;;;;4.30;1.77;;;;;;;;;;4922001;28;20035;-76
2023/06/13 11:42:08;;;;;;;3.92;2.05;;;;;;;;;;4912338;28;20055;-76
2023/06/13 11:44:37;;;;;;;4.88;1.92;;;;;;;;;;4935208;28;20373;-76
2023/06/13 11:47:04;;;;;;;1.90;1.50;;;;;;;;;;4914131;28;20083;-76
2023/06/13 11:49:30;;;;;;;7.22;2.28;;;;;;;;;;4932915;28;20087;-76
2023/06/13 11:51:56;;;;;;;8.80;2.22;;;;;;;;;;4932437;28;20106;-75
2023/06/13 11:54:29;;;;;;;2.45;1.77;;;;;;;;;;4904178;28;20051;-75
2023/06/13 11:56:55;;;;;;;7.13;1.83;;;;;;;;;;4931762;28;20059;-76
2023/06/13 11:59:28;;;;;;;7.40;1.73;;;;;;;;;;4912496;28;20047;-76
2023/06/13 12:01:55;;;;;;;5.95;1.88;;;;;;;;;;4931912;28;20039;-76
2023/06/13 12:04:25;;;;;;;7.15;2.40;;;;;;;;;;4932610;28;20043;-75
2023/06/13 12:06:54;;;;;;;8.15;2.22;;;;;;;;;;4917170;28;20058;-76
2023/06/13 12:09:21;;;;;;;6.57;2.13;;;;;;;;;;4917839;28;20051;-76
2023/06/13 12:11:47;;;;;;;4.28;1.90;;;;;;;;;;4931922;28;20078;-76
2023/06/13 12:14:16;;;;;;;5.40;2.00;;;;;;;;;;4933073;28;20507;-77
2023/06/13 12:16:42;;;;;;;5.90;1.90;;;;;;;;;;4931839;28;20138;-76
2023/06/13 12:19:09;;;;;;;4.18;2.20;;;;;;;;;;4932216;28;20491;-76
2023/06/13 12:21:36;;;;;;;3.88;2.00;;;;;;;;;;4931570;28;20165;-76
2023/06/13 12:24:03;;;;;;;5.72;2.20;;;;;;;;;;4917959;28;20055;-76
2023/06/13 12:26:33;;;;;;;7.75;2.17;;;;;;;;;;4931355;28;20066;-76
2023/06/13 12:29:02;;;;;;;8.05;2.00;;;;;;;;;;4928635;28;20050;-76
2023/06/13 12:31:34;;;;;;;4.90;1.77;;;;;;;;;;4917886;28;22072;-76
2023/06/13 12:34:13;;;;;;;4.32;1.83;;;;;;;;;;4927575;28;20224;-76
2023/06/13 12:36:42;;;;;;;5.13;2.00;;;;;;;;;;4930231;28;20051;-76
2023/06/13 12:39:09;;;;;;;3.90;2.00;;;;;;;;;;4932684;28;20043;-75
2023/06/13 12:41:37;;;;;;;4.07;2.05;;;;;;;;;;4917117;28;20051;-75
2023/06/13 12:44:03;;;;;;;3.33;1.85;;;;;;;;;;4930616;28;20039;-75
2023/06/13 12:46:30;;;;;;;3.42;1.77;;;;;;;;;;4931832;28;20492;-75
2023/06/13 12:48:56;;;;;;;9.65;2.08;;;;;;;;;;4931211;28;20043;-74
2023/06/13 12:51:29;;;;;;;5.38;2.00;;;;;;;;;;4913266;29;20055;-74
2023/06/13 12:54:08;;;;;;;6.45;2.22;;;;;;;;;;4912523;28;20476;-74
2023/06/13 12:56:34;;;;;;;5.72;2.25;;;;;;;;;;4927854;28;20055;-74
2023/06/13 12:59:01;;;;;;;5.57;2.78;;;;;;;;;;4928304;28;20050;-74
2023/06/13 13:01:28;;;;;;;6.57;2.08;;;;;;;;;;4901347;28;20136;-74
2023/06/13 13:03:54;;;;;;;6.00;2.30;;;;;;;;;;4931210;28;20627;-74
2023/06/13 13:06:23;;;;;;;6.07;1.77;;;;;;;;;;4916572;28;20062;-73
2023/06/13 13:08:49;;;;;;;10.57;1.98;;;;;;;;;;4931116;28;20043;-74
2023/06/13 13:11:15;;;;;;;4.90;2.30;;;;;;;;;;4919555;28;20547;-74
2023/06/13 13:13:42;;;;;;;8.55;2.17;;;;;;;;;;4931214;28;20039;-73
2023/06/13 13:16:08;;;;;;;5.22;2.13;;;;;;;;;;4930920;28;20044;-74
2023/06/13 13:18:34;;;;;;;9.25;2.08;;;;;;;;;;4930741;28;20047;-74
2023/06/13 13:21:00;;;;;;;4.38;2.00;;;;;;;;;;4915946;28;20051;-74
2023/06/13 13:23:29;;;;;;;9.02;2.03;;;;;;;;;;4916399;28;20047;-74
2023/06/13 13:25:55;;;;;;;3.15;2.03;;;;;;;;;;4912549;28;20054;-76
2023/06/13 13:28:22;;;;;;;6.95;1.90;;;;;;;;;;4916361;28;20054;-75
2023/06/13 13:30:48;;;;;;;4.68;1.90;;;;;;;;;;4916479;28;20086;-76
2023/06/13 13:33:14;;;;;;;4.18;2.05;;;;;;;;;;4930254;28;20046;-75
2023/06/13 13:35:41;;;;;;;4.28;2.20;;;;;;;;;;4912173;28;20050;-74
2023/06/13 13:38:07;;;;;;;5.72;1.98;;;;;;;;;;4931083;28;20587;-75
2023/06/13 13:40:33;;;;;;;5.03;2.03;;;;;;;;;;4933029;28;20050;-75
2023/06/13 13:42:59;;;;;;;3.28;2.00;;;;;;;;;;4930550;28;20369;-75
2023/06/13 13:45:25;;;;;;;6.07;2.15;;;;;;;;;;4911089;28;20066;-75
2023/06/13 13:47:53;;;;;;;6.65;2.10;;;;;;;;;;4916343;28;20047;-75
2023/06/13 13:50:19;;;;;;;3.88;2.00;;;;;;;;;;4930564;28;20094;-75
2023/06/13 13:52:45;;;;;;;7.47;2.00;;;;;;;;;;4916159;28;20055;-75
2023/06/13 13:55:13;;;;;;;5.53;2.15;;;;;;;;;;4912985;28;20127;-75
2023/06/13 13:57:39;;;;;;;5.85;2.10;;;;;;;;;;4931614;28;20421;-75
2023/06/13 14:00:06;;;;;;;5.95;2.30;;;;;;;;;;4912403;28;20062;-76
2023/06/13 14:02:32;;;;;;;6.38;1.98;;;;;;;;;;4910629;28;20053;-76
2023/06/13 14:04:58;;;;;;;5.32;2.00;;;;;;;;;;4913140;28;20385;-76
2023/06/13 14:07:25;;;;;;;5.32;2.30;;;;;;;;;;4910832;28;20054;-75
2023/06/13 14:09:51;;;;;;;8.13;2.00;;;;;;;;;;4907699;28;20106;-76
2023/06/13 14:12:17;;;;;;;6.53;2.33;;;;;;;;;;4925556;28;20097;-78
2023/06/13 14:14:43;;;;;;;5.95;2.20;;;;;;;;;;4918237;28;20051;-77
2023/06/13 14:17:09;;;;;;;4.93;2.20;;;;;;;;;;4937715;28;20039;-75
2023/06/13 14:19:36;;;;;;;5.97;1.98;;;;;;;;;;4933727;28;20070;-75
2023/06/13 14:22:02;;;;;;;3.58;2.05;;;;;;;;;;4921747;28;20043;-76
2023/06/13 14:24:29;;;;;;;9.70;2.78;;;;;;;;;;4915828;28;20499;-75
2023/06/13 14:26:55;;;;;;;3.50;2.30;;;;;;;;;;4934641;28;20108;-75
2023/06/13 14:29:21;;;;;;;6.50;2.10;;;;;;;;;;4903803;28;20056;-76
2023/06/13 14:31:47;;;;;;;3.08;2.10;;;;;;;;;;4916616;28;20043;-75
2023/06/13 14:34:14;;;;;;;2.05;1.85;;;;;;;;;;4920099;28;20090;-76
2023/06/13 14:36:41;;;;;;;5.88;1.92;;;;;;;;;;4918063;28;20054;-75
2023/06/13 14:39:08;;;;;;;4.78;2.28;;;;;;;;;;4919630;28;20141;-75
2023/06/13 14:41:34;;;;;;;4.30;2.15;;;;;;;;;;4931027;28;20044;-75
2023/06/13 14:44:00;;;;;;;3.08;2.10;;;;;;;;;;4928689;28;20039;-74